Terminal Aerodrome Forecast
Issued by NWS Billings, MT

Home | Current Version | Previous Version | Graphics & Text | Print | Product List | Glossary On
Versions: 1 2 3 4 5 6 7 8 9 10 11 12 13 14 15 16 17 18 19 20 21 22 23 24 25 26 27 28 29 30
000
FTUS45 KBYZ 242338
TAFMLS
TAF
KMLS 242338Z 2500/2524 01008KT P6SM VCSH BKN025 OVC070
     FM250300 36010KT 2SM -SN SCT009 OVC012
     FM250700 35010KT 3SM -SN OVC010
     FM251700 35011KT P6SM VCSH OVC015=

USA.gov is the U.S. government's official web portal to all federal, state and local government web resources and services.